createdAt,value
2019-03-25T00:01:53.208Z,3.10
2019-03-25T00:04:24.352Z,3.00
2019-03-25T00:06:58.127Z,3.00
2019-03-25T00:09:29.315Z,3.00
2019-03-25T00:12:00.527Z,3.10
2019-03-25T00:14:33.615Z,3.20
2019-03-25T00:17:04.787Z,3.30
2019-03-25T00:19:35.748Z,3.30
2019-03-25T00:22:06.878Z,3.20
2019-03-25T00:24:38.964Z,3.20
2019-03-25T00:27:10.426Z,3.10
2019-03-25T00:29:41.384Z,2.90
2019-03-25T00:32:12.480Z,2.90
2019-03-25T00:34:43.727Z,2.80
2019-03-25T00:37:14.847Z,2.70
2019-03-25T00:39:45.902Z,2.80
2019-03-25T00:42:17.045Z,2.90
2019-03-25T00:44:48.196Z,2.90
2019-03-25T00:47:19.193Z,2.90
2019-03-25T00:49:50.332Z,2.90
2019-03-25T00:52:21.382Z,2.90
2019-03-25T00:54:52.545Z,2.80
2019-03-25T00:57:23.495Z,2.60
2019-03-25T00:59:54.934Z,2.50
2019-03-25T01:02:26.123Z,2.40
2019-03-25T01:04:57.246Z,2.30
2019-03-25T01:07:28.365Z,2.20
2019-03-25T01:09:59.375Z,2.10
2019-03-25T01:12:30.567Z,2.10
2019-03-25T01:15:01.578Z,2.10
2019-03-25T01:17:32.755Z,2.00
2019-03-25T01:20:04.250Z,2.10
2019-03-25T01:22:35.509Z,2.20
2019-03-25T01:25:06.951Z,2.20
2019-03-25T01:27:38.047Z,2.30
2019-03-25T01:30:09.642Z,2.20
2019-03-25T01:32:40.575Z,2.30
2019-03-25T01:35:11.711Z,2.40
2019-03-25T01:37:42.864Z,2.30
2019-03-25T01:40:14.401Z,2.30
2019-03-25T01:42:45.950Z,2.30
2019-03-25T01:45:16.936Z,2.30
2019-03-25T01:47:47.973Z,2.30
2019-03-25T01:50:19.096Z,2.20
2019-03-25T01:52:50.219Z,2.30
2019-03-25T01:55:21.272Z,2.30
2019-03-25T01:57:52.352Z,2.20
2019-03-25T02:00:26.229Z,2.20
2019-03-25T02:02:57.733Z,2.20
2019-03-25T02:05:28.761Z,2.20
2019-03-25T02:07:59.772Z,2.20
2019-03-25T02:10:30.982Z,2.30
2019-03-25T02:13:02.043Z,2.20
2019-03-25T02:15:33.035Z,2.10
2019-03-25T02:18:04.135Z,2.10
2019-03-25T02:20:35.226Z,2.10
2019-03-25T02:23:06.486Z,2.00
2019-03-25T02:25:37.927Z,2.00
2019-03-25T02:28:09.040Z,2.00
2019-03-25T02:30:40.250Z,1.90
2019-03-25T02:33:12.067Z,1.90
2019-03-25T02:35:43.195Z,1.90
2019-03-25T02:38:14.203Z,1.90
2019-03-25T02:40:45.605Z,1.90
2019-03-25T02:43:16.721Z,1.90
2019-03-25T02:45:48.101Z,1.90
2019-03-25T02:48:19.346Z,1.90
2019-03-25T02:50:50.410Z,1.90
2019-03-25T02:53:21.745Z,1.80
2019-03-25T02:55:52.902Z,1.80
2019-03-25T02:58:23.903Z,1.80
2019-03-25T03:00:55.127Z,1.90
2019-03-25T03:03:29.283Z,1.90
2019-03-25T03:06:00.272Z,2.00
2019-03-25T03:08:32.597Z,2.00
2019-03-25T03:11:03.592Z,2.00
2019-03-25T03:13:34.927Z,2.00
2019-03-25T03:16:06.159Z,2.00
2019-03-25T03:18:37.249Z,2.10
2019-03-25T03:21:08.407Z,2.10
2019-03-25T03:23:39.418Z,2.20
2019-03-25T03:26:10.451Z,2.30
2019-03-25T03:28:41.487Z,2.30
2019-03-25T03:31:12.514Z,2.30
2019-03-25T03:33:43.545Z,2.30
2019-03-25T03:36:14.759Z,2.30
2019-03-25T03:38:45.906Z,2.20
2019-03-25T03:41:16.892Z,2.20
2019-03-25T03:43:48.072Z,2.20
2019-03-25T03:46:19.200Z,2.20
2019-03-25T03:48:51.717Z,2.20
2019-03-25T03:51:22.848Z,2.10
2019-03-25T03:53:55.006Z,2.10
2019-03-25T03:56:26.169Z,2.00
2019-03-25T03:58:57.601Z,2.00
2019-03-25T04:01:28.594Z,2.00
2019-03-25T04:03:59.633Z,2.00
2019-03-25T04:06:30.823Z,2.00
2019-03-25T04:09:02.003Z,2.00
2019-03-25T04:11:33.161Z,2.00
2019-03-25T04:14:04.366Z,2.00
2019-03-25T04:16:35.356Z,2.00
2019-03-25T04:19:06.474Z,2.00
2019-03-25T04:21:37.557Z,2.00
2019-03-25T04:24:08.497Z,2.00
2019-03-25T04:26:39.429Z,2.00
2019-03-25T04:29:10.624Z,1.90
2019-03-25T04:31:41.748Z,1.90
2019-03-25T04:34:13.466Z,1.80
2019-03-25T04:36:44.504Z,1.80
2019-03-25T04:39:15.981Z,1.70
2019-03-25T04:41:47.043Z,1.70
2019-03-25T04:44:18.262Z,1.70
2019-03-25T04:46:49.437Z,1.70
2019-03-25T04:49:20.640Z,1.80
2019-03-25T04:51:51.910Z,1.90
2019-03-25T04:54:22.997Z,1.90
2019-03-25T04:56:55.128Z,1.90
2019-03-25T04:59:26.100Z,1.90
2019-03-25T05:01:57.257Z,1.90
2019-03-25T05:04:28.340Z,1.90
2019-03-25T05:06:59.406Z,2.00
2019-03-25T05:09:30.443Z,2.00
2019-03-25T05:12:01.464Z,2.00
2019-03-25T05:14:32.570Z,2.10
2019-03-25T05:17:03.879Z,2.10
2019-03-25T05:19:35.119Z,2.30
2019-03-25T05:22:06.249Z,2.40
2019-03-25T05:24:37.498Z,2.40
2019-03-25T05:27:08.481Z,2.40
2019-03-25T05:29:39.573Z,2.50
2019-03-25T05:32:10.548Z,2.50
2019-03-25T05:34:41.481Z,2.50
2019-03-25T05:37:13.697Z,2.60
2019-03-25T05:39:44.988Z,2.70
2019-03-25T05:42:15.978Z,2.70
2019-03-25T05:44:47.196Z,2.80
2019-03-25T05:47:18.188Z,3.00
2019-03-25T05:49:49.357Z,3.10
2019-03-25T05:52:20.430Z,3.20
2019-03-25T05:54:51.767Z,3.30
2019-03-25T05:57:22.915Z,3.30
2019-03-25T05:59:54.010Z,3.50
2019-03-25T06:02:25.098Z,3.60
2019-03-25T06:04:56.257Z,3.70
2019-03-25T06:07:27.335Z,3.90
2019-03-25T06:09:58.513Z,3.90
2019-03-25T06:12:30.720Z,4.00
2019-03-25T06:15:02.014Z,4.20
2019-03-25T06:17:34.196Z,4.30
2019-03-25T06:20:06.332Z,4.40
2019-03-25T06:22:37.643Z,4.60
2019-03-25T06:25:08.933Z,4.70
2019-03-25T06:27:41.787Z,4.90
2019-03-25T06:30:13.570Z,5.00
2019-03-25T06:32:44.723Z,5.00
2019-03-25T06:35:18.313Z,5.20
2019-03-25T06:37:49.712Z,5.30
2019-03-25T06:40:20.932Z,5.30
2019-03-25T06:42:52.039Z,5.30
2019-03-25T06:45:23.192Z,5.40
2019-03-25T06:47:54.484Z,5.50
2019-03-25T06:50:25.708Z,5.60
2019-03-25T06:52:56.945Z,5.60
2019-03-25T06:55:28.194Z,5.60
2019-03-25T06:57:59.547Z,5.50
2019-03-25T07:00:30.888Z,5.50
2019-03-25T07:03:02.531Z,5.50
2019-03-25T07:05:33.868Z,5.40
2019-03-25T07:08:05.542Z,5.60
2019-03-25T07:10:37.891Z,5.80
2019-03-25T07:13:09.119Z,5.90
2019-03-25T07:15:40.216Z,6.00
2019-03-25T07:18:13.291Z,5.90
2019-03-25T07:20:44.500Z,5.80
2019-03-25T07:23:15.616Z,5.90
2019-03-25T07:25:46.942Z,6.00
2019-03-25T07:28:18.152Z,6.20
2019-03-25T07:30:49.837Z,6.20
2019-03-25T07:33:21.180Z,6.30
2019-03-25T07:35:52.430Z,6.60
2019-03-25T07:38:23.757Z,6.90
2019-03-25T07:40:55.032Z,7.00
2019-03-25T07:43:26.155Z,6.80
2019-03-25T07:45:57.400Z,6.80
2019-03-25T07:48:28.650Z,7.20
2019-03-25T07:50:59.981Z,7.40
2019-03-25T07:53:31.186Z,7.50
2019-03-25T07:56:03.347Z,7.60
2019-03-25T07:58:34.567Z,7.50
2019-03-25T08:01:06.133Z,7.60
2019-03-25T08:03:37.149Z,7.70
2019-03-25T08:06:08.509Z,7.70
2019-03-25T08:08:39.646Z,7.80
2019-03-25T08:11:11.036Z,8.00
2019-03-25T08:13:42.311Z,8.10
2019-03-25T08:16:13.571Z,8.10
2019-03-25T08:18:44.771Z,7.90
2019-03-25T08:21:17.404Z,7.70
2019-03-25T08:23:48.661Z,7.80
2019-03-25T08:26:19.800Z,7.80
2019-03-25T08:28:51.010Z,7.80
2019-03-25T08:31:22.360Z,7.90
2019-03-25T08:33:53.521Z,8.00
2019-03-25T08:36:24.811Z,8.20
2019-03-25T08:38:56.041Z,8.50
2019-03-25T08:41:27.238Z,8.60
2019-03-25T08:43:58.522Z,8.40
2019-03-25T08:46:29.904Z,8.20
2019-03-25T08:49:01.109Z,8.30
2019-03-25T08:51:32.208Z,8.60
2019-03-25T08:54:03.531Z,8.70
2019-03-25T08:56:34.849Z,8.80
2019-03-25T08:59:06.213Z,8.60
2019-03-25T09:01:37.479Z,8.80
2019-03-25T09:04:08.596Z,8.60
2019-03-25T09:06:39.828Z,8.70
2019-03-25T09:09:11.792Z,8.60
2019-03-25T09:11:42.990Z,8.70
2019-03-25T09:14:14.238Z,8.80
2019-03-25T09:16:45.710Z,8.90
2019-03-25T09:19:16.978Z,8.90
2019-03-25T09:21:48.222Z,8.80
2019-03-25T09:24:19.421Z,8.80
2019-03-25T09:26:50.608Z,8.80
2019-03-25T09:29:21.946Z,9.00
2019-03-25T09:31:52.980Z,9.20
2019-03-25T09:34:24.119Z,8.90
2019-03-25T09:36:55.414Z,9.00
2019-03-25T09:39:26.645Z,9.10
2019-03-25T09:41:57.731Z,9.20
2019-03-25T09:44:29.038Z,9.50
2019-03-25T09:47:00.573Z,9.70
2019-03-25T09:49:31.828Z,9.90
2019-03-25T09:52:03.012Z,9.60
2019-03-25T09:54:34.208Z,9.40
2019-03-25T09:57:05.388Z,9.70
2019-03-25T09:59:36.733Z,9.90
2019-03-25T10:02:08.102Z,10.00
2019-03-25T10:04:39.567Z,10.00
2019-03-25T10:07:15.487Z,10.10
2019-03-25T10:09:46.656Z,9.60
2019-03-25T10:12:17.946Z,9.60
2019-03-25T10:14:49.229Z,9.60
2019-03-25T10:17:20.442Z,10.00
2019-03-25T10:19:51.720Z,10.20
2019-03-25T10:22:23.077Z,10.30
2019-03-25T10:24:54.323Z,10.90
2019-03-25T10:27:25.559Z,10.70
2019-03-25T10:30:08.582Z,10.10
2019-03-25T10:32:39.980Z,9.50
2019-03-25T10:35:11.725Z,9.40
2019-03-25T10:37:43.197Z,9.40
2019-03-25T10:40:16.324Z,9.40
2019-03-25T10:42:49.045Z,9.70
2019-03-25T10:45:20.456Z,9.70
2019-03-25T10:47:51.771Z,9.80
2019-03-25T10:50:23.128Z,9.70
2019-03-25T10:52:54.479Z,9.50
2019-03-25T10:55:25.679Z,9.60
2019-03-25T10:57:57.252Z,9.80
2019-03-25T11:00:28.488Z,9.80
2019-03-25T11:02:59.850Z,9.50
2019-03-25T11:05:31.200Z,9.90
2019-03-25T11:08:02.445Z,10.40
2019-03-25T11:10:33.475Z,10.90
2019-03-25T11:13:04.735Z,11.10
2019-03-25T11:15:36.012Z,11.40
2019-03-25T11:18:07.285Z,11.30
2019-03-25T11:20:38.527Z,11.20
2019-03-25T11:23:09.700Z,11.50
2019-03-25T11:25:40.867Z,11.20
2019-03-25T11:28:12.400Z,11.00
2019-03-25T11:30:52.443Z,11.60
2019-03-25T11:33:24.245Z,12.10
2019-03-25T11:35:55.566Z,11.70
2019-03-25T11:38:26.720Z,11.00
2019-03-25T11:40:57.967Z,10.90
2019-03-25T11:43:29.187Z,10.50
2019-03-25T11:46:01.089Z,10.50
2019-03-25T11:48:32.319Z,10.70
2019-03-25T11:51:03.473Z,11.10
2019-03-25T11:53:35.963Z,10.90
2019-03-25T11:56:16.557Z,10.60
2019-03-25T11:58:47.858Z,10.60
2019-03-25T12:01:19.201Z,10.90
2019-03-25T12:03:50.664Z,11.10
2019-03-25T12:06:21.750Z,11.20
2019-03-25T12:08:53.030Z,11.20
2019-03-25T12:11:27.166Z,11.10
2019-03-25T12:13:58.607Z,10.70
2019-03-25T12:16:31.473Z,10.60
2019-03-25T12:19:02.874Z,10.50
2019-03-25T12:21:34.441Z,10.10
2019-03-25T12:24:06.567Z,10.10
2019-03-25T12:26:37.848Z,9.90
2019-03-25T12:29:09.086Z,10.00
2019-03-25T12:31:41.649Z,10.10
2019-03-25T12:34:12.990Z,10.10
2019-03-25T12:36:44.512Z,10.40
2019-03-25T12:39:15.770Z,10.70
2019-03-25T12:41:48.173Z,10.70
2019-03-25T12:44:19.499Z,10.60
2019-03-25T12:46:50.723Z,10.20
2019-03-25T12:49:21.967Z,9.80
2019-03-25T12:51:53.198Z,9.80
2019-03-25T12:54:24.470Z,9.70
2019-03-25T12:56:55.778Z,10.10
2019-03-25T12:59:26.989Z,10.40
2019-03-25T13:01:58.100Z,10.80
2019-03-25T13:04:29.429Z,11.40
2019-03-25T13:07:00.738Z,12.20
2019-03-25T13:09:31.927Z,12.60
2019-03-25T13:12:03.241Z,12.70
2019-03-25T13:14:35.271Z,12.90
2019-03-25T13:17:06.499Z,12.40
2019-03-25T13:19:37.778Z,11.80
2019-03-25T13:22:08.927Z,10.90
2019-03-25T13:24:40.128Z,10.40
2019-03-25T13:27:11.360Z,10.10
2019-03-25T13:29:52.047Z,10.20
2019-03-25T13:32:15.461Z,10.30
2019-03-25T13:34:46.582Z,10.20
2019-03-25T13:37:17.797Z,9.80
2019-03-25T13:39:48.842Z,9.70
2019-03-25T13:42:19.986Z,9.60
2019-03-25T13:44:51.061Z,9.60
2019-03-25T13:47:25.658Z,9.30
2019-03-25T13:49:57.016Z,9.20
2019-03-25T13:52:28.300Z,9.20
2019-03-25T13:54:59.558Z,9.00
2019-03-25T13:57:31.146Z,8.70
2019-03-25T14:00:03.441Z,8.50
2019-03-25T14:02:35.087Z,8.10
2019-03-25T14:05:08.833Z,8.00
2019-03-25T14:07:40.091Z,7.90
2019-03-25T14:10:11.593Z,8.10
2019-03-25T14:12:43.125Z,8.10
2019-03-25T14:15:14.501Z,7.90
2019-03-25T14:17:45.670Z,8.20
2019-03-25T14:20:16.766Z,8.00
2019-03-25T14:22:47.946Z,8.10
2019-03-25T14:25:19.205Z,7.80
2019-03-25T14:27:50.175Z,7.70
2019-03-25T14:30:21.475Z,7.60
2019-03-25T14:32:52.717Z,7.60
2019-03-25T14:35:24.272Z,7.70
2019-03-25T14:37:55.371Z,7.80
2019-03-25T14:40:26.838Z,7.70
2019-03-25T14:42:59.240Z,7.70
2019-03-25T14:45:30.645Z,7.60
2019-03-25T14:48:01.858Z,7.50
2019-03-25T14:50:33.238Z,7.50
2019-03-25T14:53:04.607Z,7.40
2019-03-25T14:55:35.890Z,7.30
2019-03-25T14:58:09.638Z,7.20
2019-03-25T15:00:40.798Z,7.20
2019-03-25T15:03:11.910Z,7.00
2019-03-25T15:05:42.992Z,6.80
2019-03-25T15:08:14.083Z,6.70
2019-03-25T15:10:53.190Z,6.60
2019-03-25T15:13:18.124Z,6.60
2019-03-25T15:15:49.676Z,6.70
2019-03-25T15:18:20.802Z,6.70
2019-03-25T15:20:52.181Z,6.70
2019-03-25T15:23:23.343Z,6.70
2019-03-25T15:25:54.607Z,6.60
2019-03-25T15:28:25.784Z,6.60
2019-03-25T15:30:56.904Z,6.50
2019-03-25T15:33:28.145Z,6.50
2019-03-25T15:35:59.437Z,6.50
2019-03-25T15:38:33.536Z,6.50
2019-03-25T15:41:04.704Z,6.50
2019-03-25T15:43:35.929Z,6.50
2019-03-25T15:46:07.404Z,6.60
2019-03-25T15:48:38.573Z,6.60
2019-03-25T15:51:09.702Z,6.60
2019-03-25T15:53:40.886Z,6.50
2019-03-25T15:56:12.297Z,6.60
2019-03-25T15:58:43.507Z,6.50
2019-03-25T16:01:14.778Z,6.50
2019-03-25T16:03:46.070Z,6.50
2019-03-25T16:06:17.501Z,6.50
2019-03-25T16:08:49.853Z,6.40
2019-03-25T16:11:21.157Z,6.40
2019-03-25T16:13:52.164Z,6.30
2019-03-25T16:16:23.506Z,6.20
2019-03-25T16:18:54.889Z,6.20
2019-03-25T16:21:26.050Z,6.20
2019-03-25T16:23:57.150Z,6.20
2019-03-25T16:26:28.396Z,6.10
2019-03-25T16:28:59.587Z,5.90
2019-03-25T16:31:30.879Z,5.80
2019-03-25T16:34:02.414Z,5.70
2019-03-25T16:36:33.904Z,5.60
2019-03-25T16:39:06.937Z,5.50
2019-03-25T16:41:39.964Z,5.50
2019-03-25T16:44:11.243Z,5.40
2019-03-25T16:46:42.445Z,5.30
2019-03-25T16:49:14.135Z,5.20
2019-03-25T16:51:45.477Z,5.10
2019-03-25T16:54:16.638Z,5.10
2019-03-25T16:56:48.088Z,5.10
2019-03-25T16:59:19.383Z,5.20
2019-03-25T17:01:50.472Z,5.00
2019-03-25T17:04:21.773Z,4.60
2019-03-25T17:06:53.148Z,4.20
2019-03-25T17:09:24.655Z,4.00
2019-03-25T17:11:56.143Z,3.90
2019-03-25T17:14:27.671Z,3.80
2019-03-25T17:17:01.173Z,3.80
2019-03-25T17:19:33.563Z,3.70
2019-03-25T17:22:05.019Z,3.70
2019-03-25T17:24:36.378Z,3.60
2019-03-25T17:27:07.889Z,3.50
2019-03-25T17:29:39.072Z,3.40
2019-03-25T17:32:10.134Z,3.30
2019-03-25T17:34:41.658Z,3.30
2019-03-25T17:37:12.987Z,3.20
2019-03-25T17:39:44.368Z,3.10
2019-03-25T17:42:15.513Z,3.00
2019-03-25T17:44:46.560Z,2.90
2019-03-25T17:47:17.811Z,2.90
2019-03-25T17:49:49.107Z,2.80
2019-03-25T17:52:20.332Z,2.70
2019-03-25T17:54:51.450Z,2.60
2019-03-25T17:57:22.868Z,2.60
2019-03-25T17:59:54.196Z,2.60
2019-03-25T18:02:25.763Z,2.50
2019-03-25T18:04:57.253Z,2.50
2019-03-25T18:07:29.100Z,2.50
2019-03-25T18:10:00.433Z,2.40
2019-03-25T18:12:38.774Z,2.30
2019-03-25T18:15:08.135Z,2.20
2019-03-25T18:17:39.317Z,2.10
2019-03-25T18:20:18.616Z,2.00
2019-03-25T18:22:46.968Z,1.90
2019-03-25T18:25:20.979Z,1.90
2019-03-25T18:27:52.403Z,1.80
2019-03-25T18:30:31.584Z,1.90
2019-03-25T18:33:02.984Z,1.70
2019-03-25T18:35:34.419Z,1.70
2019-03-25T18:38:05.797Z,1.70
2019-03-25T18:40:37.267Z,1.70
2019-03-25T18:43:08.559Z,1.60
2019-03-25T18:45:39.897Z,1.50
2019-03-25T18:48:11.054Z,1.40
2019-03-25T18:50:42.178Z,1.30
2019-03-25T18:53:13.316Z,1.20
2019-03-25T18:55:44.452Z,1.20
2019-03-25T18:58:15.965Z,1.30
2019-03-25T19:00:50.237Z,1.30
2019-03-25T19:03:25.347Z,1.40
2019-03-25T19:05:56.938Z,1.40
2019-03-25T19:08:28.869Z,1.30
2019-03-25T19:11:03.001Z,1.30
2019-03-25T19:13:34.492Z,1.20
2019-03-25T19:16:06.108Z,1.30
2019-03-25T19:18:40.946Z,1.30
2019-03-25T19:21:13.808Z,1.20
2019-03-25T19:23:45.569Z,1.20
2019-03-25T19:26:17.551Z,1.30
2019-03-25T19:28:49.886Z,1.30
2019-03-25T19:31:22.047Z,1.30
2019-03-25T19:33:53.728Z,1.30
2019-03-25T19:36:27.417Z,1.20
2019-03-25T19:38:59.646Z,1.20
2019-03-25T19:41:32.938Z,1.20
2019-03-25T19:44:04.875Z,1.20
2019-03-25T19:46:36.171Z,1.20
2019-03-25T19:49:07.536Z,1.10
2019-03-25T19:51:39.924Z,1.10
2019-03-25T19:54:11.316Z,1.10
2019-03-25T19:56:42.534Z,1.10
2019-03-25T19:59:13.787Z,1.10
2019-03-25T20:01:45.335Z,1.10
2019-03-25T20:04:16.618Z,1.00
2019-03-25T20:06:48.094Z,1.00
2019-03-25T20:09:19.809Z,1.00
2019-03-25T20:11:51.030Z,1.00
2019-03-25T20:14:22.390Z,1.00
2019-03-25T20:16:55.456Z,1.00
2019-03-25T20:19:26.916Z,1.10
2019-03-25T20:22:00.555Z,1.10
2019-03-25T20:24:31.996Z,1.00
2019-03-25T20:27:03.322Z,1.00
2019-03-25T20:29:34.760Z,1.00
2019-03-25T20:32:06.097Z,0.90
2019-03-25T20:34:37.853Z,0.80
2019-03-25T20:37:09.543Z,0.70
2019-03-25T20:39:40.837Z,0.60
2019-03-25T20:42:12.057Z,0.50
2019-03-25T20:44:43.501Z,0.30
2019-03-25T20:47:14.773Z,0.20
2019-03-25T20:49:46.024Z,0.10
2019-03-25T20:52:17.080Z,0.10
2019-03-25T20:54:50.207Z,0.10
2019-03-25T20:57:22.555Z,0.10
2019-03-25T20:59:53.652Z,0.10
2019-03-25T21:02:24.909Z,0.20
2019-03-25T21:04:56.019Z,0.30
2019-03-25T21:07:27.134Z,0.40
2019-03-25T21:09:58.274Z,0.50
2019-03-25T21:12:29.398Z,0.60
2019-03-25T21:15:00.377Z,0.60
2019-03-25T21:17:31.638Z,0.60
2019-03-25T21:20:03.054Z,0.50
2019-03-25T21:22:35.218Z,0.30
2019-03-25T21:25:07.495Z,0.30
2019-03-25T21:27:38.651Z,0.10
2019-03-25T21:30:10.163Z,0.20
2019-03-25T21:32:41.356Z,0.10
2019-03-25T21:35:12.584Z,0.00
2019-03-25T21:37:43.826Z,0.10
2019-03-25T21:40:15.463Z,0.10
2019-03-25T21:42:46.498Z,0.20
2019-03-25T21:45:17.627Z,0.20
2019-03-25T21:47:48.790Z,0.20
2019-03-25T21:50:19.941Z,0.40
2019-03-25T21:52:51.442Z,0.40
2019-03-25T21:55:23.294Z,0.40
2019-03-25T21:57:54.655Z,0.40
2019-03-25T22:00:25.842Z,0.50
2019-03-25T22:02:57.142Z,0.40
2019-03-25T22:05:28.147Z,0.30
2019-03-25T22:07:59.363Z,0.30
2019-03-25T22:10:30.402Z,0.20
2019-03-25T22:13:01.434Z,0.10
2019-03-25T22:15:32.484Z,0.00
2019-03-25T22:18:03.846Z,0.00
2019-03-25T22:20:34.814Z,0.00
2019-03-25T22:23:06.021Z,-0.10
2019-03-25T22:25:37.009Z,-0.10
2019-03-25T22:28:08.106Z,-0.10
2019-03-25T22:30:39.211Z,-0.20
2019-03-25T22:33:10.155Z,-0.20
2019-03-25T22:35:41.445Z,-0.20
2019-03-25T22:38:12.518Z,-0.20
2019-03-25T22:40:45.286Z,-0.20
2019-03-25T22:43:16.319Z,-0.10
2019-03-25T22:45:47.327Z,-0.10
2019-03-25T22:48:18.793Z,-0.10
2019-03-25T22:50:49.880Z,-0.10
2019-03-25T22:53:21.083Z,0.00
2019-03-25T22:55:52.110Z,-0.10
2019-03-25T22:58:23.240Z,0.00
2019-03-25T23:00:54.393Z,0.10
2019-03-25T23:03:38.242Z,0.00
2019-03-25T23:05:58.424Z,0.10
2019-03-25T23:08:29.444Z,0.10
2019-03-25T23:11:00.471Z,0.10
2019-03-25T23:13:31.506Z,0.10
2019-03-25T23:16:02.704Z,0.10
2019-03-25T23:18:33.899Z,0.00
2019-03-25T23:21:05.160Z,0.10
2019-03-25T23:23:36.230Z,0.10
2019-03-25T23:26:07.262Z,0.10
2019-03-25T23:28:38.373Z,0.00
2019-03-25T23:31:09.516Z,0.10
2019-03-25T23:33:51.765Z,0.00
2019-03-25T23:36:13.079Z,0.00
2019-03-25T23:38:44.007Z,0.00
2019-03-25T23:41:14.947Z,0.10
2019-03-25T23:43:45.980Z,0.20
2019-03-25T23:46:16.977Z,0.30
2019-03-25T23:48:48.175Z,0.40
2019-03-25T23:51:19.318Z,0.40
2019-03-25T23:54:10.906Z,0.50
2019-03-25T23:56:42.601Z,0.50
2019-03-25T23:59:13.700Z,0.50
